createdAt,value
2023-03-26T18:10:13.160Z,64.10
2023-03-26T18:13:08.716Z,62.60
2023-03-26T18:15:50.283Z,61.57
2023-03-26T18:18:39.380Z,63.68
2023-03-26T18:21:07.469Z,63.27
2023-03-26T18:23:44.564Z,62.64
2023-03-26T18:26:16.594Z,64.52
2023-03-26T18:28:46.089Z,65.96
2023-03-26T18:31:23.580Z,65.45
2023-03-26T18:33:54.677Z,65.24
2023-03-26T18:36:25.877Z,65.27
2023-03-26T18:38:58.189Z,65.22
2023-03-26T18:41:34.524Z,65.75
2023-03-26T18:44:02.281Z,65.64
2023-03-26T18:46:29.271Z,66.09
2023-03-26T18:48:57.089Z,65.62
2023-03-26T18:51:26.491Z,65.62
2023-03-26T18:53:59.495Z,64.98
2023-03-26T18:56:35.499Z,65.84
2023-03-26T18:59:05.456Z,65.22
2023-03-26T19:01:36.819Z,67.44
2023-03-26T19:04:08.440Z,66.48
2023-03-26T19:06:40.182Z,65.42
2023-03-26T19:09:23.763Z,66.21
2023-03-26T19:11:57.777Z,66.09
2023-03-26T19:14:25.494Z,65.24
2023-03-26T19:17:01.432Z,65.06
2023-03-26T19:19:37.523Z,66.76
2023-03-26T19:22:06.585Z,66.96
2023-03-26T19:24:34.212Z,65.32
2023-03-26T19:27:01.321Z,67.02
2023-03-26T19:29:33.116Z,66.49
2023-03-26T19:32:06.115Z,67.35
2023-03-26T19:34:38.791Z,66.51
2023-03-26T19:37:22.254Z,66.71
2023-03-26T19:39:54.592Z,67.48
2023-03-26T19:42:43.708Z,65.67
2023-03-26T19:45:18.298Z,67.58
2023-03-26T19:47:48.462Z,66.07
2023-03-26T19:50:28.330Z,67.68
2023-03-26T19:53:25.686Z,67.04
2023-03-26T19:55:56.662Z,66.34
2023-03-26T19:58:24.371Z,66.73
2023-03-26T20:00:51.161Z,67.28
2023-03-26T20:03:24.573Z,66.56
2023-03-26T20:05:52.113Z,66.13
2023-03-26T20:08:20.028Z,67.88
2023-03-26T20:10:46.936Z,68.24
2023-03-26T20:13:17.693Z,67.25
2023-03-26T20:18:45.002Z,67.74
2023-03-26T20:21:12.822Z,67.94
2023-03-26T20:23:40.893Z,67.56
2023-03-26T20:26:12.959Z,68.12
2023-03-26T20:28:47.785Z,68.30
2023-03-26T20:31:26.862Z,68.43
2023-03-26T20:33:54.312Z,68.91
2023-03-26T20:36:33.369Z,67.66
2023-03-26T20:39:08.445Z,68.31
2023-03-26T20:41:38.226Z,67.71
2023-03-26T20:44:13.925Z,67.58
2023-03-26T20:46:40.867Z,69.31
2023-03-26T20:49:07.584Z,68.07
2023-03-26T20:51:34.282Z,68.26
2023-03-26T20:54:00.937Z,67.43
2023-03-26T20:56:28.363Z,69.44
2023-03-26T20:59:10.015Z,68.84
2023-03-26T21:01:38.570Z,69.00
2023-03-26T21:04:06.376Z,70.57
2023-03-26T21:06:33.297Z,69.07
2023-03-26T21:09:00.369Z,70.04
2023-03-26T21:11:50.282Z,71.35
2023-03-26T21:14:24.904Z,71.68
2023-03-26T21:16:52.798Z,70.71
2023-03-26T21:19:20.455Z,70.48
2023-03-26T21:22:09.303Z,69.63
2023-03-26T21:24:48.336Z,70.93
2023-03-26T21:27:34.035Z,70.91
2023-03-26T21:30:01.148Z,71.00
2023-03-26T21:32:29.351Z,72.20
2023-03-26T21:34:59.176Z,71.88
2023-03-26T21:37:26.684Z,71.69
2023-03-26T21:39:53.683Z,72.09
2023-03-26T21:42:20.711Z,71.34
2023-03-26T21:44:47.851Z,70.79
2023-03-26T21:47:15.083Z,72.03
2023-03-26T21:49:42.103Z,71.25
2023-03-26T21:52:15.004Z,70.59
2023-03-26T21:54:43.417Z,70.97
2023-03-26T21:57:39.427Z,71.41
2023-03-26T22:00:23.714Z,71.81
2023-03-26T22:02:58.878Z,70.72
2023-03-26T22:05:28.554Z,72.60
2023-03-26T22:08:03.065Z,69.97
2023-03-26T22:10:31.286Z,70.00
2023-03-26T22:12:58.963Z,70.68
2023-03-26T22:15:31.395Z,70.92
2023-03-26T22:18:03.413Z,71.00
2023-03-26T22:20:30.466Z,69.63
2023-03-26T22:22:57.333Z,71.02
2023-03-26T22:25:24.314Z,71.24
2023-03-26T22:27:51.756Z,71.56
2023-03-26T22:30:20.940Z,71.16
2023-03-26T22:32:48.778Z,70.81
2023-03-26T22:35:15.814Z,72.28
2023-03-26T22:37:42.881Z,71.28
2023-03-26T22:40:13.074Z,70.86
2023-03-26T22:42:40.271Z,71.01
2023-03-26T22:45:07.920Z,70.35
2023-03-26T22:47:35.604Z,71.78
2023-03-26T22:50:03.468Z,71.06
2023-03-26T22:52:30.799Z,71.49
2023-03-26T22:54:57.538Z,70.25
2023-03-26T22:57:24.516Z,71.76
2023-03-26T22:59:52.247Z,72.36
2023-03-26T23:02:19.906Z,71.27
2023-03-26T23:04:47.950Z,71.17
2023-03-26T23:07:15.051Z,71.13
2023-03-26T23:09:41.884Z,72.63
2023-03-26T23:12:08.893Z,72.27
2023-03-26T23:14:36.464Z,71.85
2023-03-26T23:17:03.829Z,71.93
2023-03-26T23:19:30.625Z,71.62
2023-03-26T23:21:57.629Z,72.41
2023-03-26T23:24:26.648Z,73.10
2023-03-26T23:26:53.409Z,72.79
2023-03-26T23:29:20.493Z,73.05
2023-03-26T23:31:47.669Z,72.13
2023-03-26T23:34:15.476Z,71.77
2023-03-26T23:36:42.509Z,71.00
2023-03-26T23:39:09.439Z,72.03
2023-03-26T23:41:36.931Z,70.62
2023-03-26T23:44:04.108Z,70.63
2023-03-26T23:46:33.229Z,71.68
2023-03-26T23:49:02.646Z,71.96
2023-03-26T23:51:30.454Z,70.71
2023-03-26T23:53:57.425Z,70.50
2023-03-26T23:56:24.253Z,71.16
2023-03-26T23:58:51.096Z,71.28
